createdAt,value
2019-03-30T00:00:58.094Z,88.63
2019-03-30T00:01:58.943Z,88.58
2019-03-30T00:02:59.767Z,88.46
2019-03-30T00:03:59.781Z,88.47
2019-03-30T00:04:59.992Z,88.61
2019-03-30T00:06:00.482Z,89.04
2019-03-30T00:07:00.584Z,88.97
2019-03-30T00:08:01.418Z,88.60
2019-03-30T00:09:01.939Z,88.41
2019-03-30T00:10:02.436Z,88.48
2019-03-30T00:11:03.166Z,88.52
2019-03-30T00:12:03.990Z,88.35
2019-03-30T00:13:04.503Z,88.59
2019-03-30T00:14:05.271Z,88.25
2019-03-30T00:15:06.036Z,88.29
2019-03-30T00:16:06.818Z,88.59
2019-03-30T00:17:06.294Z,88.68
2019-03-30T00:18:07.889Z,88.31
2019-03-30T00:19:08.733Z,88.52
2019-03-30T00:20:09.289Z,89.31
2019-03-30T00:20:17.844Z,88.69
2019-03-30T00:21:19.404Z,88.65
2019-03-30T00:22:20.035Z,89.06
2019-03-30T00:23:20.625Z,88.41
2019-03-30T00:24:21.202Z,88.26
2019-03-30T00:25:21.675Z,89.13
2019-03-30T00:26:22.339Z,89.31
2019-03-30T00:27:23.305Z,89.07
2019-03-30T00:28:24.189Z,89.29
2019-03-30T00:29:24.939Z,89.41
2019-03-30T00:30:25.535Z,89.13
2019-03-30T00:31:26.138Z,88.79
2019-03-30T00:32:26.815Z,89.50
2019-03-30T00:33:27.571Z,89.22
2019-03-30T00:34:28.212Z,88.42
2019-03-30T00:35:28.783Z,89.63
2019-03-30T00:36:28.492Z,89.63
2019-03-30T00:37:30.403Z,89.62
2019-03-30T00:38:31.036Z,89.73
2019-03-30T00:39:31.391Z,89.87
2019-03-30T00:40:31.919Z,90.27
2019-03-30T00:41:32.656Z,89.80
2019-03-30T00:42:33.129Z,89.60
2019-03-30T00:43:33.662Z,89.92
2019-03-30T00:44:34.368Z,89.85
2019-03-30T00:45:34.943Z,90.44
2019-03-30T00:46:35.694Z,89.96
2019-03-30T00:47:36.264Z,90.09
2019-03-30T00:48:36.432Z,89.89
2019-03-30T00:49:48.491Z,89.70
2019-03-30T00:50:37.206Z,89.35
2019-03-30T00:51:39.009Z,89.26
2019-03-30T00:52:39.553Z,89.45
2019-03-30T00:53:40.124Z,89.73
2019-03-30T00:54:39.081Z,89.54
2019-03-30T00:55:40.897Z,89.90
2019-03-30T00:56:41.544Z,89.31
2019-03-30T00:57:42.073Z,89.99
2019-03-30T00:58:42.651Z,89.10
2019-03-30T00:59:43.335Z,89.58
2019-03-30T01:00:44.282Z,90.00
2019-03-30T01:01:44.868Z,89.82
2019-03-30T01:02:45.558Z,90.51
2019-03-30T01:03:45.093Z,90.54
2019-03-30T01:04:46.679Z,90.83
2019-03-30T01:05:47.425Z,91.30
2019-03-30T01:06:48.182Z,90.42
2019-03-30T01:06:56.762Z,91.24
2019-03-30T01:07:57.780Z,91.35
2019-03-30T01:08:58.372Z,91.40
2019-03-30T01:09:58.955Z,91.43
2019-03-30T01:10:59.601Z,91.33
2019-03-30T01:12:00.181Z,91.26
2019-03-30T01:13:00.750Z,91.21
2019-03-30T01:14:01.353Z,91.73
2019-03-30T01:15:02.069Z,91.64
2019-03-30T01:16:02.569Z,91.71
2019-03-30T01:17:03.356Z,91.39
2019-03-30T01:18:03.915Z,92.07
2019-03-30T01:19:04.436Z,91.79
2019-03-30T01:20:05.336Z,91.73
2019-03-30T01:21:05.908Z,91.88
2019-03-30T01:22:06.757Z,91.85
2019-03-30T01:23:07.295Z,92.11
2019-03-30T01:24:07.833Z,91.87
2019-03-30T01:25:08.495Z,91.81
2019-03-30T01:26:09.177Z,92.33
2019-03-30T01:27:09.784Z,91.84
2019-03-30T01:28:10.368Z,91.66
2019-03-30T01:29:10.894Z,91.19
2019-03-30T01:30:22.539Z,91.66
2019-03-30T01:31:10.640Z,91.48
2019-03-30T01:32:12.230Z,91.36
2019-03-30T01:33:12.933Z,91.11
2019-03-30T01:34:12.684Z,91.14
2019-03-30T01:35:13.106Z,91.19
2019-03-30T01:36:13.610Z,91.75
2019-03-30T01:37:14.283Z,91.99
2019-03-30T01:38:15.929Z,91.63
2019-03-30T01:39:15.907Z,91.44
2019-03-30T01:40:16.456Z,90.95
2019-03-30T01:41:17.014Z,90.99
2019-03-30T01:42:17.661Z,91.08
2019-03-30T01:43:18.220Z,91.36
2019-03-30T01:44:18.852Z,91.16
2019-03-30T01:45:19.419Z,90.99
2019-03-30T01:46:20.006Z,91.72
2019-03-30T01:47:20.718Z,91.33
2019-03-30T01:48:21.262Z,91.01
2019-03-30T01:49:21.825Z,92.00
2019-03-30T01:50:22.408Z,91.78
2019-03-30T01:51:22.988Z,91.73
2019-03-30T01:52:23.183Z,90.76
2019-03-30T01:53:23.816Z,90.58
2019-03-30T01:53:32.329Z,90.75
2019-03-30T01:54:33.779Z,90.80
2019-03-30T01:55:34.367Z,90.53
2019-03-30T01:56:34.009Z,90.71
2019-03-30T01:57:35.682Z,90.61
2019-03-30T01:58:36.508Z,90.91
2019-03-30T01:59:37.192Z,90.71
2019-03-30T02:00:37.730Z,90.62
2019-03-30T02:01:38.278Z,90.64
2019-03-30T02:02:38.872Z,90.69
2019-03-30T02:03:39.410Z,90.59
2019-03-30T02:04:40.217Z,90.39
2019-03-30T02:05:40.904Z,91.29
2019-03-30T02:06:41.394Z,91.05
2019-03-30T02:07:41.936Z,90.71
2019-03-30T02:08:42.491Z,91.30
2019-03-30T02:09:43.009Z,91.37
2019-03-30T02:10:43.597Z,91.48
2019-03-30T02:11:44.134Z,91.14
2019-03-30T02:12:44.674Z,90.99
2019-03-30T02:13:45.418Z,90.95
2019-03-30T02:14:45.946Z,90.94
2019-03-30T02:15:46.500Z,91.29
2019-03-30T02:16:47.427Z,91.55
2019-03-30T02:17:47.885Z,91.85
2019-03-30T02:18:47.912Z,92.07
2019-03-30T02:19:48.489Z,92.10
2019-03-30T02:20:49.162Z,92.09
2019-03-30T02:21:49.820Z,92.37
2019-03-30T02:22:50.449Z,92.58
2019-03-30T02:23:51.103Z,91.85
2019-03-30T02:24:51.659Z,92.57
2019-03-30T02:25:52.195Z,92.48
2019-03-30T02:26:52.782Z,92.42
2019-03-30T02:27:53.566Z,92.43
2019-03-30T02:28:54.295Z,92.58
2019-03-30T02:29:54.896Z,92.22
2019-03-30T02:30:55.601Z,92.43
2019-03-30T02:31:56.527Z,92.14
2019-03-30T02:32:57.262Z,92.07
2019-03-30T02:33:58.029Z,92.51
2019-03-30T02:34:58.614Z,92.35
2019-03-30T02:35:59.309Z,92.26
2019-03-30T02:36:08.328Z,91.95
2019-03-30T02:37:10.038Z,91.91
2019-03-30T02:38:10.899Z,92.14
2019-03-30T02:39:10.728Z,92.24
2019-03-30T02:40:12.316Z,92.28
2019-03-30T02:41:12.821Z,92.42
2019-03-30T02:42:13.554Z,92.38
2019-03-30T02:43:14.061Z,92.69
2019-03-30T02:44:14.620Z,92.57
2019-03-30T02:45:15.241Z,92.16
2019-03-30T02:46:15.808Z,92.52
2019-03-30T02:47:16.139Z,92.52
2019-03-30T02:48:16.895Z,92.63
2019-03-30T02:49:17.417Z,92.62
2019-03-30T02:50:18.079Z,92.59
2019-03-30T02:51:18.648Z,93.19
2019-03-30T02:52:18.662Z,93.15
2019-03-30T02:53:19.366Z,93.37
2019-03-30T02:54:21.232Z,92.82
2019-03-30T02:55:19.897Z,92.83
2019-03-30T02:56:21.459Z,92.90
2019-03-30T02:57:22.166Z,93.11
2019-03-30T02:58:22.249Z,92.59
2019-03-30T02:59:22.976Z,93.05
2019-03-30T03:00:23.533Z,92.75
2019-03-30T03:01:24.282Z,92.62
2019-03-30T03:02:24.282Z,92.52
2019-03-30T03:03:24.375Z,93.21
2019-03-30T03:04:25.263Z,92.61
2019-03-30T03:05:25.738Z,92.94
2019-03-30T03:06:26.011Z,93.07
2019-03-30T03:07:26.010Z,93.61
2019-03-30T03:08:26.465Z,93.70
2019-03-30T03:09:26.567Z,94.58
2019-03-30T03:10:26.893Z,95.23
2019-03-30T03:11:26.728Z,96.27
2019-03-30T03:12:28.292Z,96.14
2019-03-30T03:13:28.763Z,95.73
2019-03-30T03:14:29.425Z,95.12
2019-03-30T03:15:29.974Z,95.25
2019-03-30T03:16:30.585Z,95.59
2019-03-30T03:17:31.193Z,95.71
2019-03-30T03:18:31.729Z,95.93
2019-03-30T03:19:32.291Z,96.16
2019-03-30T03:20:33.134Z,96.25
2019-03-30T03:21:33.721Z,95.30
2019-03-30T03:22:34.273Z,95.07
2019-03-30T03:22:42.825Z,95.45
2019-03-30T03:23:44.491Z,95.45
2019-03-30T03:24:45.064Z,95.42
2019-03-30T03:25:45.826Z,95.31
2019-03-30T03:26:46.452Z,94.93
2019-03-30T03:27:47.073Z,94.46
2019-03-30T03:28:47.622Z,94.97
2019-03-30T03:29:48.207Z,94.47
2019-03-30T03:30:48.782Z,94.28
2019-03-30T03:31:48.350Z,94.41
2019-03-30T03:32:50.303Z,94.20
2019-03-30T03:33:51.045Z,94.65
2019-03-30T03:34:51.758Z,95.03
2019-03-30T03:35:51.384Z,95.15
2019-03-30T03:36:52.831Z,94.43
2019-03-30T03:37:53.497Z,94.21
2019-03-30T03:38:54.011Z,94.44
2019-03-30T03:39:54.590Z,94.75
2019-03-30T03:40:55.285Z,94.65
2019-03-30T03:41:55.933Z,95.34
2019-03-30T03:42:56.480Z,94.75
2019-03-30T03:43:57.048Z,94.77
2019-03-30T03:44:57.579Z,94.44
2019-03-30T03:45:58.109Z,94.25
2019-03-30T03:46:58.719Z,94.08
2019-03-30T03:47:59.548Z,94.01
2019-03-30T03:49:00.475Z,93.47
2019-03-30T03:50:01.081Z,93.40
2019-03-30T03:51:01.691Z,93.63
2019-03-30T03:52:02.419Z,93.78
2019-03-30T03:53:03.086Z,93.39
2019-03-30T03:54:03.606Z,93.15
2019-03-30T03:55:03.495Z,92.60
2019-03-30T03:56:05.011Z,92.98
2019-03-30T03:57:05.546Z,93.55
2019-03-30T03:58:06.214Z,93.29
2019-03-30T03:59:06.738Z,93.68
2019-03-30T04:00:07.593Z,94.23
2019-03-30T04:01:08.182Z,94.32
2019-03-30T04:02:08.310Z,94.10
2019-03-30T04:03:08.866Z,94.10
2019-03-30T04:04:09.361Z,94.73
2019-03-30T04:05:09.884Z,94.70
2019-03-30T04:06:09.416Z,94.13
2019-03-30T04:07:11.031Z,94.26
2019-03-30T04:08:11.818Z,94.91
2019-03-30T04:09:12.332Z,94.72
2019-03-30T04:09:20.848Z,95.23
2019-03-30T04:10:22.293Z,95.30
2019-03-30T04:11:22.940Z,95.13
2019-03-30T04:12:23.817Z,94.78
2019-03-30T04:13:24.316Z,94.97
2019-03-30T04:14:24.997Z,95.39
2019-03-30T04:15:25.256Z,95.19
2019-03-30T04:16:25.830Z,95.04
2019-03-30T04:17:26.687Z,95.10
2019-03-30T04:18:27.267Z,95.46
2019-03-30T04:19:27.944Z,95.50
2019-03-30T04:20:28.540Z,95.50
2019-03-30T04:21:42.908Z,95.23
2019-03-30T04:22:29.107Z,95.99
2019-03-30T04:23:30.716Z,96.08
2019-03-30T04:24:31.525Z,95.84
2019-03-30T04:25:32.025Z,96.21
2019-03-30T04:26:32.704Z,95.66
2019-03-30T04:27:33.247Z,95.97
2019-03-30T04:28:34.109Z,95.74
2019-03-30T04:29:34.674Z,96.13
2019-03-30T04:30:35.175Z,95.99
2019-03-30T04:31:35.361Z,95.93
2019-03-30T04:32:35.956Z,96.65
2019-03-30T04:33:36.522Z,95.95
2019-03-30T04:34:37.271Z,96.71
2019-03-30T04:35:37.812Z,96.53
2019-03-30T04:36:38.470Z,96.69
2019-03-30T04:37:39.338Z,97.18
2019-03-30T04:38:39.896Z,96.47
2019-03-30T04:39:40.568Z,96.31
2019-03-30T04:40:41.163Z,95.83
2019-03-30T04:41:41.827Z,95.27
2019-03-30T04:42:42.470Z,95.33
2019-03-30T04:43:43.052Z,94.95
2019-03-30T04:44:43.855Z,94.58
2019-03-30T04:45:44.439Z,95.17
2019-03-30T04:46:45.133Z,95.27
2019-03-30T04:47:45.721Z,95.27
2019-03-30T04:48:46.203Z,95.70
2019-03-30T04:49:46.780Z,95.61
2019-03-30T04:50:46.811Z,95.99
2019-03-30T04:51:57.445Z,95.96
2019-03-30T04:52:47.049Z,95.80
2019-03-30T04:53:48.582Z,95.99
2019-03-30T04:54:49.455Z,95.34
2019-03-30T04:55:48.867Z,95.87
2019-03-30T04:55:58.913Z,96.17
2019-03-30T04:57:00.359Z,96.16
2019-03-30T04:58:00.898Z,96.09
2019-03-30T04:59:00.892Z,96.54
2019-03-30T05:00:01.416Z,96.83
2019-03-30T05:01:01.911Z,96.41
2019-03-30T05:02:01.944Z,96.79
2019-03-30T05:03:02.526Z,96.97
2019-03-30T05:04:03.038Z,97.38
2019-03-30T05:05:03.866Z,96.88
2019-03-30T05:06:04.560Z,96.71
2019-03-30T05:07:05.119Z,96.28
2019-03-30T05:08:05.319Z,96.29
2019-03-30T05:09:05.940Z,96.28
2019-03-30T05:10:06.510Z,96.20
2019-03-30T05:11:07.023Z,96.26
2019-03-30T05:12:07.532Z,96.31
2019-03-30T05:13:07.976Z,96.36
2019-03-30T05:14:08.276Z,96.47
2019-03-30T05:15:08.776Z,96.34
2019-03-30T05:16:09.622Z,96.27
2019-03-30T05:17:10.520Z,96.28
2019-03-30T05:18:11.167Z,96.46
2019-03-30T05:19:11.993Z,96.42
2019-03-30T05:20:11.318Z,96.44
2019-03-30T05:21:12.989Z,96.64
2019-03-30T05:22:16.428Z,96.63
2019-03-30T05:23:12.934Z,96.54
2019-03-30T05:24:14.892Z,96.47
2019-03-30T05:25:14.344Z,96.61
2019-03-30T05:26:15.898Z,96.07
2019-03-30T05:27:16.620Z,96.23
2019-03-30T05:28:17.214Z,96.03
2019-03-30T05:29:17.706Z,95.99
2019-03-30T05:30:18.420Z,95.37
2019-03-30T05:31:18.995Z,95.94
2019-03-30T05:32:19.840Z,96.16
2019-03-30T05:33:20.468Z,96.14
2019-03-30T05:34:21.148Z,96.18
2019-03-30T05:35:21.611Z,95.93
2019-03-30T05:36:22.202Z,96.08
2019-03-30T05:37:22.766Z,96.07
2019-03-30T05:38:22.893Z,96.44
2019-03-30T05:39:23.459Z,96.57
2019-03-30T05:40:23.980Z,96.15
2019-03-30T05:41:24.682Z,95.27
2019-03-30T05:41:33.204Z,95.12
2019-03-30T05:42:35.098Z,95.12
2019-03-30T05:43:35.693Z,95.08
2019-03-30T05:44:36.246Z,94.61
2019-03-30T05:45:36.019Z,93.87
2019-03-30T05:46:37.712Z,94.36
2019-03-30T05:47:38.282Z,94.15
2019-03-30T05:48:38.876Z,94.32
2019-03-30T05:49:39.350Z,94.58
2019-03-30T05:50:40.169Z,94.67
2019-03-30T05:51:40.641Z,94.05
2019-03-30T05:52:41.362Z,94.78
2019-03-30T05:53:42.043Z,94.33
2019-03-30T05:54:42.645Z,94.06
2019-03-30T05:55:43.150Z,94.24
2019-03-30T05:56:43.830Z,94.19
2019-03-30T05:57:44.393Z,94.04
2019-03-30T05:58:45.040Z,93.56
2019-03-30T05:59:45.623Z,93.52
2019-03-30T06:00:46.178Z,93.47
2019-03-30T06:01:46.978Z,93.35
2019-03-30T06:02:47.672Z,93.00
2019-03-30T06:03:47.277Z,92.79
2019-03-30T06:04:48.920Z,92.46
2019-03-30T06:05:49.449Z,92.68
2019-03-30T06:06:50.087Z,92.57
2019-03-30T06:07:50.745Z,93.15
2019-03-30T06:08:51.304Z,93.63
2019-03-30T06:09:51.373Z,93.92
2019-03-30T06:10:51.925Z,93.17
2019-03-30T06:11:52.802Z,93.25
2019-03-30T06:12:53.397Z,93.37
2019-03-30T06:13:53.961Z,93.04
2019-03-30T06:14:54.858Z,93.37
2019-03-30T06:15:55.453Z,92.81
2019-03-30T06:16:56.344Z,93.59
2019-03-30T06:17:57.058Z,93.29
2019-03-30T06:18:57.612Z,93.08
2019-03-30T06:19:58.155Z,93.11
2019-03-30T06:20:59.071Z,92.95
2019-03-30T06:21:59.626Z,93.16
2019-03-30T06:23:00.231Z,93.11
2019-03-30T06:24:00.746Z,93.27
2019-03-30T06:25:01.322Z,93.18
2019-03-30T06:26:01.322Z,93.28
2019-03-30T06:26:09.872Z,92.44
2019-03-30T06:27:11.673Z,92.42
2019-03-30T06:28:12.189Z,93.28
2019-03-30T06:29:13.083Z,93.68
2019-03-30T06:30:13.624Z,93.00
2019-03-30T06:31:14.557Z,93.55
2019-03-30T06:32:15.519Z,93.71
2019-03-30T06:33:16.091Z,93.16
2019-03-30T06:34:16.884Z,92.90
2019-03-30T06:35:17.488Z,93.28
2019-03-30T06:36:18.059Z,93.74
2019-03-30T06:37:18.603Z,93.48
2019-03-30T06:38:19.201Z,93.41
2019-03-30T06:39:20.083Z,93.35
2019-03-30T06:40:20.785Z,93.43
2019-03-30T06:41:21.637Z,93.58
2019-03-30T06:42:21.970Z,93.61
2019-03-30T06:43:22.099Z,93.57
2019-03-30T06:44:22.752Z,93.86
2019-03-30T06:45:23.356Z,93.34
2019-03-30T06:46:23.674Z,93.55
2019-03-30T06:47:24.650Z,93.28
2019-03-30T06:48:25.269Z,92.45
2019-03-30T06:49:25.476Z,91.77
2019-03-30T06:50:26.422Z,90.14
2019-03-30T06:51:27.249Z,88.62
2019-03-30T06:52:27.409Z,87.65
2019-03-30T06:53:28.191Z,85.54
2019-03-30T06:54:28.889Z,82.91
2019-03-30T06:55:29.677Z,82.69
2019-03-30T06:56:30.606Z,81.52
2019-03-30T06:57:30.181Z,80.37
2019-03-30T06:58:31.769Z,78.59
2019-03-30T06:59:32.354Z,78.84
2019-03-30T07:00:32.541Z,77.47
2019-03-30T07:01:33.168Z,77.45
2019-03-30T07:02:33.775Z,77.65
2019-03-30T07:03:34.555Z,76.96
2019-03-30T07:04:35.281Z,75.28
2019-03-30T07:05:36.282Z,73.44
2019-03-30T07:06:36.937Z,71.33
2019-03-30T07:07:37.807Z,72.71
2019-03-30T07:08:38.486Z,71.00
2019-03-30T07:09:38.852Z,68.96
2019-03-30T07:10:39.518Z,68.31
2019-03-30T07:10:50.087Z,66.55
2019-03-30T07:11:51.342Z,66.69
2019-03-30T07:12:52.189Z,66.19
2019-03-30T07:13:52.863Z,64.20
2019-03-30T07:14:53.611Z,63.03
2019-03-30T07:15:54.361Z,62.00
2019-03-30T07:16:55.325Z,61.72
2019-03-30T07:17:55.999Z,60.57
2019-03-30T07:18:56.624Z,58.92
2019-03-30T07:19:57.568Z,59.01
2019-03-30T07:20:58.455Z,58.39
2019-03-30T07:21:59.224Z,58.45
2019-03-30T07:23:11.234Z,57.48
2019-03-30T07:23:58.929Z,57.83
2019-03-30T07:25:00.783Z,57.34
2019-03-30T07:26:01.498Z,55.61
2019-03-30T07:27:02.203Z,55.66
2019-03-30T07:28:02.865Z,55.74
2019-03-30T07:29:03.399Z,54.99
2019-03-30T07:30:03.967Z,54.49
2019-03-30T07:31:04.673Z,55.52
2019-03-30T07:32:05.389Z,54.93
2019-03-30T07:33:05.880Z,53.95
2019-03-30T07:34:06.436Z,54.57
2019-03-30T07:35:07.235Z,52.50
2019-03-30T07:36:07.800Z,50.95
2019-03-30T07:37:08.745Z,50.49
2019-03-30T07:38:09.399Z,52.48
2019-03-30T07:39:10.016Z,51.88
2019-03-30T07:40:10.633Z,51.45
2019-03-30T07:41:11.388Z,49.79
2019-03-30T07:42:12.349Z,49.00
2019-03-30T07:43:13.124Z,48.73
2019-03-30T07:44:13.854Z,49.19
2019-03-30T07:45:14.553Z,49.91
2019-03-30T07:46:15.433Z,49.68
2019-03-30T07:47:15.555Z,49.18
2019-03-30T07:48:15.540Z,50.78
2019-03-30T07:49:16.125Z,52.58
2019-03-30T07:50:16.641Z,51.31
2019-03-30T07:51:17.367Z,50.58
2019-03-30T07:52:16.424Z,49.97
2019-03-30T07:53:26.186Z,50.53
2019-03-30T07:54:17.892Z,51.45
2019-03-30T07:55:19.413Z,50.83
2019-03-30T07:56:20.056Z,50.54
2019-03-30T07:56:28.544Z,51.58
2019-03-30T07:57:30.210Z,51.06
2019-03-30T07:58:30.795Z,50.53
2019-03-30T07:59:31.400Z,49.21
2019-03-30T08:00:32.084Z,49.15
2019-03-30T08:01:32.713Z,48.34
2019-03-30T08:02:33.674Z,48.90
2019-03-30T08:03:34.551Z,49.26
2019-03-30T08:04:35.120Z,48.35
2019-03-30T08:05:35.775Z,45.99
2019-03-30T08:06:36.463Z,47.72
2019-03-30T08:07:37.283Z,47.99
2019-03-30T08:08:37.867Z,47.25
2019-03-30T08:09:38.637Z,47.39
2019-03-30T08:10:39.204Z,48.28
2019-03-30T08:11:39.763Z,48.52
2019-03-30T08:12:40.349Z,47.68
2019-03-30T08:13:40.980Z,48.26
2019-03-30T08:14:44.948Z,48.44
2019-03-30T08:15:41.422Z,48.43
2019-03-30T08:16:43.082Z,48.58
2019-03-30T08:17:42.889Z,48.50
2019-03-30T08:18:44.800Z,48.47
2019-03-30T08:19:45.451Z,48.14
2019-03-30T08:20:45.979Z,47.31
2019-03-30T08:21:46.523Z,47.28
2019-03-30T08:22:46.628Z,46.78
2019-03-30T08:23:47.185Z,47.66
2019-03-30T08:24:47.815Z,47.87
2019-03-30T08:25:48.436Z,48.09
2019-03-30T08:26:49.114Z,48.36
2019-03-30T08:27:49.630Z,47.90
2019-03-30T08:28:50.216Z,48.55
2019-03-30T08:29:50.739Z,47.34
2019-03-30T08:30:51.402Z,45.67
2019-03-30T08:31:51.883Z,46.19
2019-03-30T08:32:52.442Z,46.25
2019-03-30T08:33:53.153Z,48.06
2019-03-30T08:34:53.744Z,49.13
2019-03-30T08:35:54.569Z,49.06
2019-03-30T08:36:55.053Z,48.73
2019-03-30T08:37:55.742Z,47.52
2019-03-30T08:38:56.282Z,47.20
2019-03-30T08:39:56.870Z,48.12
2019-03-30T08:40:57.388Z,47.90
2019-03-30T08:41:58.062Z,46.69
2019-03-30T08:42:09.144Z,49.50
2019-03-30T08:43:10.440Z,49.61
2019-03-30T08:44:11.244Z,49.05
2019-03-30T08:45:11.876Z,48.72
2019-03-30T08:46:12.443Z,48.15
2019-03-30T08:47:13.267Z,48.47
2019-03-30T08:48:13.976Z,48.21
2019-03-30T08:49:14.938Z,47.97
2019-03-30T08:50:15.651Z,49.33
2019-03-30T08:51:16.606Z,49.80
2019-03-30T08:52:17.188Z,50.49
2019-03-30T08:53:17.678Z,50.11
2019-03-30T08:54:18.284Z,49.92
2019-03-30T08:55:18.857Z,51.21
2019-03-30T08:56:19.527Z,51.88
2019-03-30T08:57:20.329Z,51.13
2019-03-30T08:58:20.870Z,51.21
2019-03-30T08:59:21.434Z,51.15
2019-03-30T09:00:21.977Z,51.10
2019-03-30T09:01:22.571Z,50.12
2019-03-30T09:02:23.244Z,50.64
2019-03-30T09:03:22.885Z,50.71
2019-03-30T09:04:24.662Z,50.72
2019-03-30T09:05:25.329Z,50.88
2019-03-30T09:06:25.934Z,50.30
2019-03-30T09:07:26.493Z,49.52
2019-03-30T09:08:27.161Z,50.16
2019-03-30T09:09:27.764Z,50.29
2019-03-30T09:10:28.302Z,51.26
2019-03-30T09:11:29.081Z,51.34
2019-03-30T09:12:29.284Z,51.56
2019-03-30T09:13:29.389Z,51.36
2019-03-30T09:14:29.677Z,51.75
2019-03-30T09:15:30.195Z,51.83
2019-03-30T09:16:30.755Z,52.96
2019-03-30T09:17:31.324Z,52.42
2019-03-30T09:18:31.838Z,52.63
2019-03-30T09:19:31.994Z,53.75
2019-03-30T09:20:32.151Z,53.96
2019-03-30T09:21:32.923Z,54.47
2019-03-30T09:22:33.582Z,54.70
2019-03-30T09:23:34.221Z,54.38
2019-03-30T09:24:34.840Z,53.86
2019-03-30T09:25:35.346Z,54.83
2019-03-30T09:25:43.880Z,54.78
2019-03-30T09:26:45.453Z,54.31
2019-03-30T09:27:46.452Z,54.10
2019-03-30T09:28:47.073Z,54.25
2019-03-30T09:29:47.896Z,53.86
2019-03-30T09:30:48.484Z,54.42
2019-03-30T09:31:49.009Z,55.04
2019-03-30T09:32:49.608Z,54.77
2019-03-30T09:33:50.267Z,55.76
2019-03-30T09:34:50.984Z,55.83
2019-03-30T09:35:51.550Z,55.71
2019-03-30T09:36:52.326Z,54.64
2019-03-30T09:37:51.929Z,54.70
2019-03-30T09:38:51.998Z,54.09
2019-03-30T09:39:53.210Z,54.87
2019-03-30T09:40:53.871Z,54.97
2019-03-30T09:41:54.430Z,54.89
2019-03-30T09:42:55.050Z,54.53
2019-03-30T09:43:55.849Z,54.45
2019-03-30T09:44:56.495Z,53.72
2019-03-30T09:45:57.220Z,52.78
2019-03-30T09:46:58.174Z,53.03
2019-03-30T09:47:58.891Z,53.15
2019-03-30T09:48:59.573Z,53.15
2019-03-30T09:50:02.507Z,53.26
2019-03-30T09:50:59.725Z,53.48
2019-03-30T09:52:01.313Z,53.83
2019-03-30T09:53:01.864Z,54.32
2019-03-30T09:54:02.614Z,53.87
2019-03-30T09:55:03.309Z,54.26
2019-03-30T09:56:04.014Z,55.44
2019-03-30T09:57:04.694Z,55.26
2019-03-30T09:58:03.644Z,54.60
2019-03-30T09:59:04.672Z,54.00
2019-03-30T10:00:05.202Z,53.03
2019-03-30T10:01:05.751Z,54.12
2019-03-30T10:02:06.222Z,54.11
2019-03-30T10:03:06.759Z,54.87
2019-03-30T10:04:07.488Z,54.12
2019-03-30T10:05:08.026Z,54.52
2019-03-30T10:06:08.617Z,55.27
2019-03-30T10:07:09.160Z,53.15
2019-03-30T10:08:09.228Z,53.07
2019-03-30T10:09:09.829Z,53.37
2019-03-30T10:10:10.431Z,54.03
2019-03-30T10:11:11.031Z,54.79
2019-03-30T10:12:11.656Z,54.56
2019-03-30T10:13:12.555Z,53.36
2019-03-30T10:13:21.071Z,53.56
2019-03-30T10:14:22.095Z,53.57
2019-03-30T10:15:23.035Z,53.86
2019-03-30T10:16:22.815Z,52.47
2019-03-30T10:17:23.843Z,52.80
2019-03-30T10:18:24.515Z,52.78
2019-03-30T10:19:27.709Z,53.82
2019-03-30T10:20:25.019Z,53.95
2019-03-30T10:21:26.698Z,53.98
2019-03-30T10:22:27.315Z,52.82
2019-03-30T10:23:28.205Z,52.85
2019-03-30T10:24:37.932Z,52.66
2019-03-30T10:25:28.691Z,52.50
2019-03-30T10:26:30.316Z,53.40
2019-03-30T10:27:30.887Z,52.36
2019-03-30T10:28:31.494Z,53.03
2019-03-30T10:29:32.036Z,53.10
2019-03-30T10:30:32.987Z,53.10
2019-03-30T10:31:33.581Z,52.75
2019-03-30T10:32:34.128Z,53.06
2019-03-30T10:33:34.633Z,53.55
2019-03-30T10:34:34.891Z,53.55
2019-03-30T10:35:35.157Z,52.27
2019-03-30T10:36:35.770Z,50.76
2019-03-30T10:37:36.664Z,51.54
2019-03-30T10:38:37.483Z,52.07
2019-03-30T10:39:38.123Z,51.90
2019-03-30T10:40:38.745Z,52.04
2019-03-30T10:41:39.474Z,51.45
2019-03-30T10:42:40.203Z,50.93
2019-03-30T10:43:41.084Z,51.23
2019-03-30T10:44:41.863Z,50.26
2019-03-30T10:45:42.449Z,50.06
2019-03-30T10:46:43.076Z,48.77
2019-03-30T10:47:43.594Z,48.12
2019-03-30T10:48:44.177Z,48.34
2019-03-30T10:49:44.722Z,48.82
2019-03-30T10:50:45.259Z,48.17
2019-03-30T10:51:46.073Z,47.59
2019-03-30T10:52:46.612Z,47.98
2019-03-30T10:53:47.204Z,48.25
2019-03-30T10:54:53.029Z,48.19
2019-03-30T10:55:47.737Z,47.15
2019-03-30T10:56:49.401Z,46.94
2019-03-30T10:57:50.035Z,47.01
2019-03-30T10:58:50.561Z,47.06
2019-03-30T10:59:51.554Z,46.57
2019-03-30T11:00:00.583Z,47.95
2019-03-30T11:01:02.087Z,47.88
2019-03-30T11:02:02.809Z,47.20
2019-03-30T11:03:03.010Z,47.03
2019-03-30T11:04:03.697Z,45.18
2019-03-30T11:05:04.521Z,45.95
2019-03-30T11:06:03.972Z,46.19
2019-03-30T11:07:05.608Z,46.35
2019-03-30T11:08:05.578Z,46.13
2019-03-30T11:09:06.110Z,46.58
2019-03-30T11:10:06.635Z,46.35
2019-03-30T11:11:07.384Z,45.07
2019-03-30T11:12:08.113Z,46.31
2019-03-30T11:13:08.701Z,45.55
2019-03-30T11:14:09.233Z,45.43
2019-03-30T11:15:09.507Z,45.15
2019-03-30T11:16:09.574Z,44.88
2019-03-30T11:17:10.253Z,45.83
2019-03-30T11:18:10.946Z,45.78
2019-03-30T11:19:11.721Z,45.49
2019-03-30T11:20:12.208Z,45.72
2019-03-30T11:21:12.755Z,45.42
2019-03-30T11:22:13.733Z,45.82
2019-03-30T11:23:13.373Z,45.58
2019-03-30T11:24:15.154Z,45.74
2019-03-30T11:25:15.696Z,46.03
2019-03-30T11:26:15.810Z,45.49
2019-03-30T11:27:15.842Z,45.76
2019-03-30T11:28:16.684Z,45.81
2019-03-30T11:29:16.208Z,45.52
2019-03-30T11:30:18.006Z,44.76
2019-03-30T11:31:18.685Z,45.04
2019-03-30T11:32:18.508Z,45.70
2019-03-30T11:33:20.793Z,44.93
2019-03-30T11:34:20.693Z,44.95
2019-03-30T11:35:20.809Z,44.60
2019-03-30T11:36:21.416Z,44.55
2019-03-30T11:37:21.981Z,43.99
2019-03-30T11:38:22.547Z,44.58
2019-03-30T11:39:23.441Z,44.32
2019-03-30T11:40:24.125Z,44.97
2019-03-30T11:41:25.099Z,45.41
2019-03-30T11:42:24.288Z,45.02
2019-03-30T11:43:25.938Z,44.07
2019-03-30T11:44:26.529Z,45.20
2019-03-30T11:45:26.558Z,44.23
2019-03-30T11:46:27.191Z,43.97
2019-03-30T11:46:35.727Z,44.24
2019-03-30T11:47:36.784Z,44.33
2019-03-30T11:48:37.797Z,43.90
2019-03-30T11:49:37.084Z,44.52
2019-03-30T11:50:38.340Z,44.80
2019-03-30T11:51:38.963Z,44.64
2019-03-30T11:52:39.600Z,43.88
2019-03-30T11:53:40.386Z,44.00
2019-03-30T11:54:40.945Z,43.13
2019-03-30T11:55:40.974Z,43.52
2019-03-30T11:56:41.876Z,43.37
2019-03-30T11:57:42.396Z,42.72
2019-03-30T11:58:42.994Z,42.28
2019-03-30T11:59:43.820Z,42.79
2019-03-30T12:00:44.331Z,42.61
2019-03-30T12:01:45.141Z,41.84
2019-03-30T12:02:45.586Z,42.60
2019-03-30T12:03:46.313Z,42.60
2019-03-30T12:04:47.006Z,41.86
2019-03-30T12:05:47.959Z,41.91
2019-03-30T12:06:51.682Z,42.17
2019-03-30T12:07:48.371Z,42.13
2019-03-30T12:08:50.261Z,42.46
2019-03-30T12:09:50.811Z,42.78
2019-03-30T12:10:51.511Z,42.20
2019-03-30T12:11:52.086Z,41.76
2019-03-30T12:12:52.278Z,41.50
2019-03-30T12:13:53.045Z,41.99
2019-03-30T12:14:53.846Z,41.92
2019-03-30T12:15:54.698Z,42.77
2019-03-30T12:16:55.597Z,42.55
2019-03-30T12:17:56.266Z,42.65
2019-03-30T12:18:56.798Z,42.70
2019-03-30T12:19:57.454Z,42.08
2019-03-30T12:20:58.015Z,42.30
2019-03-30T12:21:58.982Z,41.88
2019-03-30T12:22:59.536Z,41.31
2019-03-30T12:24:00.234Z,41.90
2019-03-30T12:25:00.941Z,41.84
2019-03-30T12:26:01.552Z,41.78
2019-03-30T12:27:02.118Z,42.30
2019-03-30T12:28:02.683Z,41.73
2019-03-30T12:29:03.463Z,41.40
2019-03-30T12:30:04.176Z,42.15
2019-03-30T12:31:05.151Z,41.63
2019-03-30T12:32:05.750Z,41.28
2019-03-30T12:32:14.798Z,41.61
2019-03-30T12:33:16.775Z,41.62
2019-03-30T12:34:17.645Z,41.15
2019-03-30T12:35:18.440Z,41.93
2019-03-30T12:36:17.579Z,41.27
2019-03-30T12:37:18.893Z,41.81
2019-03-30T12:38:19.461Z,42.45
2019-03-30T12:39:20.214Z,42.99
2019-03-30T12:40:21.064Z,43.74
2019-03-30T12:41:21.632Z,42.59
2019-03-30T12:42:22.375Z,43.12
2019-03-30T12:43:23.017Z,42.79
2019-03-30T12:44:23.934Z,42.36
2019-03-30T12:45:24.498Z,42.02
2019-03-30T12:46:25.093Z,42.22